Time;durP1;ratioP1;P1;durP2;ratioP2;P2;SDS_P1;SDS_P2;PMS_P1;PMS_P2;Temp;Humidity;BMP_temperature;BMP_pressure;BME280_temperature;BME280_humidity;BME280_pressure;Samples;Min_cycle;Max_cycle;Signal;HPM_P1;HPM_P2
2022/07/26 00:00:12;;;;;;;;;;;20.20;76.60;;;;;;5066035;28;19932;-56
2022/07/26 00:02:38;;;;;;;;;;;20.10;77.20;;;;;;5072329;28;19908;-57
2022/07/26 00:05:04;;;;;;;;;;;20.10;77.70;;;;;;5068267;28;19915;-59
2022/07/26 00:07:29;;;;;;;;;;;20.10;77.20;;;;;;5073088;28;19908;-57
2022/07/26 00:09:55;;;;;;;;;;;20.10;77.50;;;;;;5073315;28;20335;-57
2022/07/26 00:12:20;;;;;;;;;;;20.00;78.10;;;;;;5073230;28;19908;-58
2022/07/26 00:14:46;;;;;;;;;;;20.00;77.20;;;;;;5072956;28;19909;-54
2022/07/26 00:17:11;;;;;;;;;;;20.00;77.60;;;;;;5073099;28;19915;-56
2022/07/26 00:19:37;;;;;;;;;;;19.90;78.00;;;;;;5072679;28;19934;-58
2022/07/26 00:24:46;;;;;;;;;;;19.80;77.90;;;;;;5072861;28;19967;-57
2022/07/26 00:27:12;;;;;;;;;;;19.80;78.30;;;;;;5073139;28;20377;-56
2022/07/26 00:29:38;;;;;;;;;;;19.80;77.30;;;;;;5072983;28;19919;-55
2022/07/26 00:32:03;;;;;;;;;;;19.80;78.20;;;;;;5072484;28;20442;-55
2022/07/26 00:34:29;;;;;;;;;;;19.80;79.00;;;;;;5072050;28;19908;-58
2022/07/26 00:36:54;;;;;;;;;;;19.80;79.30;;;;;;5067030;28;19916;-56
2022/07/26 00:39:20;;;;;;;;;;;19.70;79.90;;;;;;5048570;28;20284;-52
2022/07/26 00:41:45;;;;;;;;;;;19.70;79.70;;;;;;5072671;28;19969;-58
2022/07/26 00:44:11;;;;;;;;;;;19.70;79.00;;;;;;5065403;28;19916;-58
2022/07/26 00:46:36;;;;;;;;;;;19.60;78.70;;;;;;5071893;28;20431;-55
2022/07/26 00:49:02;;;;;;;;;;;19.60;79.00;;;;;;5066874;28;19916;-57
2022/07/26 00:51:27;;;;;;;;;;;19.60;79.90;;;;;;5072165;28;19924;-55
2022/07/26 00:53:53;;;;;;;;;;;19.60;80.70;;;;;;5071836;28;19951;-58
2022/07/26 00:56:19;;;;;;;;;;;19.60;80.10;;;;;;5072221;28;19909;-57
2022/07/26 00:58:45;;;;;;;;;;;19.50;80.00;;;;;;5072061;28;19918;-57
2022/07/26 01:01:10;;;;;;;;;;;19.50;80.10;;;;;;5071739;28;20286;-57
2022/07/26 01:03:36;;;;;;;;;;;19.50;80.90;;;;;;5071229;28;19967;-54
2022/07/26 01:06:01;;;;;;;;;;;19.50;80.90;;;;;;5072103;28;19908;-55
2022/07/26 01:08:27;;;;;;;;;;;19.40;80.20;;;;;;5071731;28;19913;-53
2022/07/26 01:10:52;;;;;;;;;;;19.40;81.90;;;;;;5071463;28;20061;-56
2022/07/26 01:13:19;;;;;;;;;;;19.40;80.90;;;;;;5071630;28;19912;-53
2022/07/26 01:15:44;;;;;;;;;;;19.30;81.60;;;;;;5071996;28;19987;-51
2022/07/26 01:18:09;;;;;;;;;;;19.30;82.10;;;;;;5071310;28;19995;-57
2022/07/26 01:20:35;;;;;;;;;;;19.30;82.30;;;;;;5071584;28;19938;-52
2022/07/26 01:23:01;;;;;;;;;;;19.30;82.10;;;;;;5072414;28;19916;-56
2022/07/26 01:25:27;;;;;;;;;;;19.30;82.90;;;;;;5071060;28;19909;-57
2022/07/26 01:27:53;;;;;;;;;;;19.20;83.40;;;;;;5065447;28;19950;-58
2022/07/26 01:30:18;;;;;;;;;;;19.20;82.80;;;;;;5071156;28;20001;-53
2022/07/26 01:32:44;;;;;;;;;;;19.20;82.70;;;;;;5069086;28;19912;-54
2022/07/26 01:35:09;;;;;;;;;;;19.20;82.50;;;;;;5070630;28;19915;-55
2022/07/26 01:37:35;;;;;;;;;;;19.20;82.90;;;;;;5071124;28;19952;-56
2022/07/26 01:40:00;;;;;;;;;;;19.20;83.30;;;;;;5071351;28;19923;-57
2022/07/26 01:42:26;;;;;;;;;;;19.20;82.80;;;;;;5071369;28;19908;-57
2022/07/26 01:44:51;;;;;;;;;;;19.10;83.00;;;;;;5070988;28;19909;-55
2022/07/26 01:47:17;;;;;;;;;;;19.10;82.70;;;;;;5071339;28;20373;-54
2022/07/26 01:49:42;;;;;;;;;;;19.10;82.50;;;;;;5065808;28;19931;-54
2022/07/26 01:52:08;;;;;;;;;;;19.20;84.00;;;;;;5071139;28;19909;-56
2022/07/26 01:54:33;;;;;;;;;;;19.10;83.50;;;;;;5064542;28;19919;-57
2022/07/26 01:56:59;;;;;;;;;;;19.10;83.70;;;;;;5070008;28;20024;-54
2022/07/26 01:59:24;;;;;;;;;;;19.10;82.30;;;;;;5067376;28;19912;-55
2022/07/26 02:01:50;;;;;;;;;;;19.10;83.60;;;;;;5068557;28;20381;-54
2022/07/26 02:07:00;;;;;;;;;;;19.00;83.80;;;;;;5064546;28;19939;-54
2022/07/26 02:09:26;;;;;;;;;;;19.00;84.00;;;;;;5071331;28;20361;-56
2022/07/26 02:11:51;;;;;;;;;;;18.90;84.60;;;;;;5070869;28;20352;-55
2022/07/26 02:14:17;;;;;;;;;;;18.90;84.10;;;;;;5070510;28;19909;-57
2022/07/26 02:16:42;;;;;;;;;;;18.90;85.40;;;;;;5045928;28;20440;-57
2022/07/26 02:19:08;;;;;;;;;;;18.90;84.70;;;;;;5070634;28;19913;-57
2022/07/26 02:21:33;;;;;;;;;;;18.90;84.30;;;;;;5070835;28;19920;-57
2022/07/26 02:23:59;;;;;;;;;;;18.90;83.90;;;;;;5070128;28;19908;-55
2022/07/26 02:26:24;;;;;;;;;;;18.90;83.90;;;;;;5071245;28;20297;-57
2022/07/26 02:28:50;;;;;;;;;;;18.80;84.40;;;;;;5070406;28;20289;-52
2022/07/26 02:31:15;;;;;;;;;;;18.80;85.40;;;;;;5070808;28;19908;-57
2022/07/26 02:33:41;;;;;;;;;;;18.80;86.30;;;;;;5070495;28;19909;-57
2022/07/26 02:36:07;;;;;;;;;;;18.70;85.60;;;;;;5070913;28;19912;-54
2022/07/26 02:38:32;;;;;;;;;;;18.70;87.00;;;;;;5071229;28;20008;-56
2022/07/26 02:40:58;;;;;;;;;;;18.70;86.70;;;;;;5052482;28;19917;-54
2022/07/26 02:43:23;;;;;;;;;;;18.70;86.10;;;;;;5069849;28;19916;-56
2022/07/26 02:45:49;;;;;;;;;;;18.70;86.60;;;;;;5064136;28;19912;-55
2022/07/26 02:48:14;;;;;;;;;;;18.70;87.20;;;;;;5070437;28;19908;-56
2022/07/26 02:50:40;;;;;;;;;;;18.70;87.10;;;;;;5070256;28;19924;-57
2022/07/26 02:53:05;;;;;;;;;;;18.70;87.30;;;;;;5071316;28;19916;-53
2022/07/26 02:55:31;;;;;;;;;;;18.70;87.60;;;;;;5070749;28;19959;-57
2022/07/26 02:57:56;;;;;;;;;;;18.60;87.10;;;;;;5069745;28;19915;-54
2022/07/26 03:00:24;;;;;;;;;;;18.60;88.20;;;;;;5070330;28;20262;-57
2022/07/26 03:02:50;;;;;;;;;;;18.60;88.00;;;;;;5071008;28;19909;-54
2022/07/26 03:05:16;;;;;;;;;;;18.60;90.20;;;;;;5070656;28;19940;-56
2022/07/26 03:07:41;;;;;;;;;;;18.60;89.20;;;;;;5069922;28;20290;-57
2022/07/26 03:10:07;;;;;;;;;;;18.60;88.20;;;;;;5069979;28;19916;-54
2022/07/26 03:12:32;;;;;;;;;;;18.60;88.10;;;;;;5069919;28;19990;-57
2022/07/26 03:14:58;;;;;;;;;;;18.60;88.50;;;;;;5070550;28;19958;-55
2022/07/26 03:17:23;;;;;;;;;;;18.60;89.10;;;;;;5070359;28;19915;-56
2022/07/26 03:19:49;;;;;;;;;;;18.50;88.70;;;;;;5070198;28;20285;-57
2022/07/26 03:22:14;;;;;;;;;;;18.50;90.30;;;;;;5063788;28;20284;-55
2022/07/26 03:24:40;;;;;;;;;;;18.50;90.10;;;;;;5070150;28;19915;-54
2022/07/26 03:27:05;;;;;;;;;;;18.50;89.40;;;;;;5071828;28;20393;-55
2022/07/26 03:29:31;;;;;;;;;;;18.50;90.10;;;;;;5074293;28;19908;-57
2022/07/26 03:31:56;;;;;;;;;;;18.50;90.40;;;;;;5073500;28;19913;-53
2022/07/26 03:34:22;;;;;;;;;;;18.50;90.30;;;;;;5073680;28;19950;-52
2022/07/26 03:36:47;;;;;;;;;;;18.50;90.20;;;;;;5073446;28;20435;-55
2022/07/26 03:39:13;;;;;;;;;;;18.50;90.00;;;;;;5073774;28;19908;-53
2022/07/26 03:41:39;;;;;;;;;;;18.50;90.60;;;;;;5072642;28;19917;-56
2022/07/26 03:44:04;;;;;;;;;;;18.50;90.20;;;;;;5073922;28;19999;-57
2022/07/26 03:46:30;;;;;;;;;;;18.50;90.80;;;;;;5073427;28;19979;-57
2022/07/26 03:48:55;;;;;;;;;;;18.50;90.80;;;;;;5073204;28;19913;-53
2022/07/26 03:51:21;;;;;;;;;;;18.60;90.70;;;;;;5073139;28;20489;-54
2022/07/26 03:53:46;;;;;;;;;;;18.60;89.90;;;;;;5073722;28;19915;-56
2022/07/26 03:56:27;;;;;;;;;;;18.60;90.20;;;;;;5072981;28;19909;-54
2022/07/26 03:58:53;;;;;;;;;;;18.60;90.00;;;;;;5073271;28;19916;-56
2022/07/26 04:01:18;;;;;;;;;;;18.70;90.20;;;;;;5066507;28;19920;-57
2022/07/26 04:03:44;;;;;;;;;;;18.70;90.20;;;;;;5055542;28;19908;-57
2022/07/26 04:06:09;;;;;;;;;;;18.70;90.60;;;;;;5073310;28;19908;-56
2022/07/26 04:08:35;;;;;;;;;;;18.70;90.50;;;;;;5072617;28;19909;-56
2022/07/26 04:11:01;;;;;;;;;;;18.70;90.70;;;;;;5072343;28;19916;-57
2022/07/26 04:13:26;;;;;;;;;;;18.70;90.50;;;;;;5072891;28;19913;-53
2022/07/26 04:15:52;;;;;;;;;;;18.80;91.20;;;;;;5072469;28;20486;-57
2022/07/26 04:18:17;;;;;;;;;;;18.70;91.20;;;;;;5072235;28;19919;-53
2022/07/26 04:20:43;;;;;;;;;;;18.80;91.00;;;;;;5072466;28;20015;-56
2022/07/26 04:23:08;;;;;;;;;;;18.80;90.70;;;;;;5072991;28;19909;-56
2022/07/26 04:25:34;;;;;;;;;;;18.80;91.10;;;;;;5072342;28;19920;-54
2022/07/26 04:28:00;;;;;;;;;;;18.80;91.00;;;;;;5072548;28;19908;-57
2022/07/26 04:30:26;;;;;;;;;;;18.80;91.00;;;;;;5072507;28;20018;-57
2022/07/26 04:32:51;;;;;;;;;;;18.80;91.30;;;;;;5054223;28;20424;-52
2022/07/26 04:35:17;;;;;;;;;;;18.80;90.90;;;;;;5072119;28;20004;-54
2022/07/26 04:37:43;;;;;;;;;;;18.80;91.30;;;;;;5065027;28;19908;-52
2022/07/26 04:40:10;;;;;;;;;;;18.80;91.80;;;;;;5065590;28;19927;-55
2022/07/26 04:42:35;;;;;;;;;;;18.80;91.50;;;;;;5072429;28;20020;-56
2022/07/26 04:45:02;;;;;;;;;;;18.80;91.40;;;;;;5073281;28;20323;-56
2022/07/26 04:47:27;;;;;;;;;;;18.80;92.00;;;;;;5072375;28;19970;-49
2022/07/26 04:49:53;;;;;;;;;;;18.80;91.90;;;;;;5071960;28;19920;-56
2022/07/26 04:52:18;;;;;;;;;;;18.80;91.90;;;;;;5072435;28;19909;-56
2022/07/26 04:54:44;;;;;;;;;;;18.80;91.90;;;;;;5071676;28;19948;-52
2022/07/26 04:57:09;;;;;;;;;;;18.80;92.20;;;;;;5072209;28;20434;-55
2022/07/26 04:59:35;;;;;;;;;;;18.80;92.00;;;;;;5071972;28;19913;-56
2022/07/26 05:02:00;;;;;;;;;;;18.90;92.00;;;;;;5072341;28;20425;-53
2022/07/26 05:04:26;;;;;;;;;;;18.90;92.20;;;;;;5071711;28;19916;-56
2022/07/26 05:06:51;;;;;;;;;;;18.90;92.00;;;;;;5071921;28;19955;-55
2022/07/26 05:09:17;;;;;;;;;;;18.90;92.10;;;;;;5071188;28;19932;-57
2022/07/26 05:11:42;;;;;;;;;;;18.90;92.10;;;;;;5072547;28;19908;-56
2022/07/26 05:14:08;;;;;;;;;;;18.90;92.30;;;;;;5071492;28;19909;-52
2022/07/26 05:16:33;;;;;;;;;;;18.90;92.00;;;;;;5071873;28;19915;-57
2022/07/26 05:18:59;;;;;;;;;;;18.90;92.30;;;;;;5069812;28;19951;-54
2022/07/26 05:21:26;;;;;;;;;;;18.90;92.20;;;;;;5071764;28;19916;-53
2022/07/26 05:23:53;;;;;;;;;;;19.00;92.80;;;;;;5070482;28;20262;-55
2022/07/26 05:26:18;;;;;;;;;;;18.90;92.70;;;;;;5065710;28;20019;-52
2022/07/26 05:28:44;;;;;;;;;;;18.90;92.40;;;;;;5071291;28;19951;-51
2022/07/26 05:31:09;;;;;;;;;;;18.90;92.60;;;;;;5071964;28;19916;-51
2022/07/26 05:33:34;;;;;;;;;;;18.90;92.80;;;;;;5071387;28;19920;-54
2022/07/26 05:36:00;;;;;;;;;;;18.90;92.90;;;;;;5071653;28;20373;-55
2022/07/26 05:38:26;;;;;;;;;;;18.90;92.70;;;;;;5070481;28;19908;-52
2022/07/26 05:40:52;;;;;;;;;;;18.90;92.90;;;;;;5071554;28;20327;-56
2022/07/26 05:43:18;;;;;;;;;;;18.90;92.80;;;;;;5071089;28;20442;-53
2022/07/26 05:45:43;;;;;;;;;;;18.90;93.00;;;;;;5074021;28;20005;-51
2022/07/26 05:48:08;;;;;;;;;;;18.90;93.00;;;;;;5072851;28;19951;-53
2022/07/26 05:50:34;;;;;;;;;;;18.90;93.00;;;;;;5070801;28;19952;-61
2022/07/26 05:52:59;;;;;;;;;;;19.00;93.10;;;;;;5070533;28;19908;-61
2022/07/26 05:55:25;;;;;;;;;;;19.00;93.00;;;;;;5071296;28;19912;-62
2022/07/26 05:57:51;;;;;;;;;;;19.00;93.10;;;;;;5071013;28;19944;-63
2022/07/26 06:00:17;;;;;;;;;;;19.10;93.20;;;;;;5071015;28;19920;-60
2022/07/26 06:02:42;;;;;;;;;;;19.10;93.30;;;;;;5071076;28;19912;-60
2022/07/26 06:05:08;;;;;;;;;;;19.20;93.20;;;;;;5071050;28;19916;-63
2022/07/26 06:07:33;;;;;;;;;;;19.10;92.80;;;;;;5070557;28;19913;-61
2022/07/26 06:09:59;;;;;;;;;;;19.20;93.10;;;;;;5070965;28;20423;-61
2022/07/26 06:12:24;;;;;;;;;;;19.20;93.30;;;;;;5070736;28;19932;-62
2022/07/26 06:14:50;;;;;;;;;;;19.20;93.50;;;;;;5070689;28;20312;-63
2022/07/26 06:17:15;;;;;;;;;;;19.20;93.20;;;;;;5077834;28;20447;-61
2022/07/26 06:19:41;;;;;;;;;;;19.20;93.50;;;;;;5079432;28;19908;-60
2022/07/26 06:22:07;;;;;;;;;;;19.20;93.20;;;;;;5078503;28;20364;-61
2022/07/26 06:24:32;;;;;;;;;;;19.30;93.00;;;;;;5073385;28;19915;-59
2022/07/26 06:26:58;;;;;;;;;;;19.20;93.30;;;;;;5080133;28;19908;-60
2022/07/26 06:29:24;;;;;;;;;;;19.20;93.20;;;;;;5079243;28;19961;-61
2022/07/26 06:31:49;;;;;;;;;;;19.20;93.60;;;;;;5079889;28;19908;-60
2022/07/26 06:34:15;;;;;;;;;;;19.20;93.30;;;;;;5078835;28;19978;-60
2022/07/26 06:36:41;;;;;;;;;;;19.30;93.70;;;;;;5077717;28;20438;-62
2022/07/26 06:39:06;;;;;;;;;;;19.20;93.60;;;;;;5080130;28;19987;-61
2022/07/26 06:41:32;;;;;;;;;;;19.30;93.40;;;;;;5074027;28;19921;-62
2022/07/26 06:43:57;;;;;;;;;;;19.40;93.70;;;;;;5072789;28;19908;-59
2022/07/26 06:46:23;;;;;;;;;;;19.40;93.50;;;;;;5070839;28;19913;-58
2022/07/26 06:48:49;;;;;;;;;;;19.40;93.40;;;;;;5063353;28;19913;-58
2022/07/26 06:51:14;;;;;;;;;;;19.30;93.60;;;;;;5069750;28;19924;-59
2022/07/26 06:53:40;;;;;;;;;;;19.30;93.60;;;;;;5070668;28;20652;-59
2022/07/26 06:56:06;;;;;;;;;;;19.40;93.60;;;;;;5070871;28;19909;-60
2022/07/26 06:58:31;;;;;;;;;;;19.40;93.80;;;;;;5070818;28;19920;-59
2022/07/26 07:00:57;;;;;;;;;;;19.30;93.70;;;;;;5071214;28;19923;-59
2022/07/26 07:03:22;;;;;;;;;;;19.30;93.60;;;;;;5074276;28;19908;-60
2022/07/26 07:05:48;;;;;;;;;;;19.40;94.00;;;;;;5055517;28;19914;-59
2022/07/26 07:08:14;;;;;;;;;;;19.30;93.80;;;;;;5074344;28;19912;-59
2022/07/26 07:10:39;;;;;;;;;;;19.30;93.70;;;;;;5074362;28;20259;-60
2022/07/26 07:13:05;;;;;;;;;;;19.40;94.10;;;;;;5074084;28;20381;-59
2022/07/26 07:15:30;;;;;;;;;;;19.30;94.20;;;;;;5074120;28;19913;-60
2022/07/26 07:17:56;;;;;;;;;;;19.40;94.20;;;;;;5073831;28;19909;-60
2022/07/26 07:20:21;;;;;;;;;;;19.40;94.10;;;;;;5073826;28;19916;-58
2022/07/26 07:22:47;;;;;;;;;;;19.40;94.20;;;;;;5073689;28;20003;-58
2022/07/26 07:25:12;;;;;;;;;;;19.40;94.20;;;;;;5074035;28;19962;-59
2022/07/26 07:27:38;;;;;;;;;;;19.40;94.10;;;;;;5074220;28;19913;-59
2022/07/26 07:30:04;;;;;;;;;;;19.40;94.10;;;;;;5074175;28;19915;-59
2022/07/26 07:32:29;;;;;;;;;;;19.50;94.10;;;;;;5074142;28;19992;-59
2022/07/26 07:34:55;;;;;;;;;;;19.50;94.00;;;;;;5038514;28;20350;-59
2022/07/26 07:37:20;;;;;;;;;;;19.50;93.90;;;;;;5063680;28;19961;-58
2022/07/26 07:39:46;;;;;;;;;;;19.50;94.00;;;;;;5073717;28;19916;-59
2022/07/26 07:42:12;;;;;;;;;;;19.60;94.10;;;;;;5073288;28;19928;-59
2022/07/26 07:44:37;;;;;;;;;;;19.70;94.00;;;;;;5073957;28;19912;-59
2022/07/26 07:47:03;;;;;;;;;;;19.80;93.90;;;;;;5073450;28;20392;-59
2022/07/26 07:49:28;;;;;;;;;;;19.80;93.80;;;;;;5072581;28;19916;-59
2022/07/26 07:51:54;;;;;;;;;;;19.80;93.90;;;;;;5073505;28;19915;-59
2022/07/26 07:54:19;;;;;;;;;;;19.80;93.80;;;;;;5073486;28;19908;-59
2022/07/26 07:56:45;;;;;;;;;;;19.90;93.50;;;;;;5073030;28;19974;-59
2022/07/26 07:59:10;;;;;;;;;;;19.80;93.50;;;;;;5073801;28;19908;-59
2022/07/26 08:01:36;;;;;;;;;;;19.80;93.50;;;;;;5072829;28;19916;-58
2022/07/26 08:04:01;;;;;;;;;;;19.80;93.50;;;;;;5066101;28;19968;-59
2022/07/26 08:06:27;;;;;;;;;;;19.80;93.80;;;;;;5073792;28;19909;-60
2022/07/26 08:08:52;;;;;;;;;;;19.90;93.50;;;;;;5072961;28;20391;-58
2022/07/26 08:11:18;;;;;;;;;;;19.90;93.40;;;;;;5073345;28;19966;-60
2022/07/26 08:13:43;;;;;;;;;;;20.00;93.30;;;;;;5072822;28;19952;-58
2022/07/26 08:16:09;;;;;;;;;;;20.00;93.20;;;;;;5073095;28;19912;-59
2022/07/26 08:18:34;;;;;;;;;;;20.00;93.10;;;;;;5072864;28;20474;-60
2022/07/26 08:21:02;;;;;;;;;;;20.10;93.00;;;;;;5072770;28;19920;-58
2022/07/26 08:23:27;;;;;;;;;;;20.20;93.00;;;;;;5072833;28;19912;-60
2022/07/26 08:25:53;;;;;;;;;;;20.20;92.80;;;;;;5072572;28;19993;-59
2022/07/26 08:28:18;;;;;;;;;;;20.20;92.80;;;;;;5073338;28;19909;-59
2022/07/26 08:30:44;;;;;;;;;;;20.30;92.80;;;;;;5072273;28;19915;-59
2022/07/26 08:33:09;;;;;;;;;;;20.30;92.60;;;;;;5072427;28;19912;-59
2022/07/26 08:35:35;;;;;;;;;;;20.30;92.60;;;;;;5072787;28;19975;-58
2022/07/26 08:38:00;;;;;;;;;;;20.30;92.50;;;;;;5072644;28;19916;-58
2022/07/26 08:40:26;;;;;;;;;;;20.20;92.30;;;;;;5072290;28;19962;-60
2022/07/26 08:42:52;;;;;;;;;;;20.20;92.40;;;;;;5072983;28;19917;-59
2022/07/26 08:45:24;;;;;;;;;;;20.20;92.50;;;;;;5072040;28;19908;-59
2022/07/26 08:47:50;;;;;;;;;;;20.30;92.60;;;;;;5072204;28;19908;-59
2022/07/26 08:50:16;;;;;;;;;;;20.40;92.70;;;;;;5072269;28;20304;-59
2022/07/26 08:52:42;;;;;;;;;;;20.50;92.50;;;;;;5072232;28;19909;-60
2022/07/26 08:55:08;;;;;;;;;;;20.50;92.50;;;;;;5072700;28;19918;-59
2022/07/26 08:57:33;;;;;;;;;;;20.50;92.10;;;;;;5065084;28;19916;-58
2022/07/26 09:00:15;;;;;;;;;;;20.40;92.20;;;;;;5071742;28;19935;-59
2022/07/26 09:02:40;;;;;;;;;;;20.40;92.30;;;;;;5072239;28;19912;-60
2022/07/26 09:05:06;;;;;;;;;;;20.40;92.50;;;;;;5071824;28;20426;-60
2022/07/26 09:07:32;;;;;;;;;;;20.40;92.30;;;;;;5072339;28;19947;-60
2022/07/26 09:10:03;;;;;;;;;;;20.50;92.40;;;;;;5071977;28;20293;-59
2022/07/26 09:12:30;;;;;;;;;;;20.60;92.30;;;;;;5071878;28;19909;-59
2022/07/26 09:14:56;;;;;;;;;;;20.60;92.30;;;;;;5071130;28;19908;-59
2022/07/26 09:17:22;;;;;;;;;;;20.60;92.30;;;;;;5071758;28;19915;-60
2022/07/26 09:20:03;;;;;;;;;;;20.60;92.30;;;;;;5071452;28;20378;-59
2022/07/26 09:22:29;;;;;;;;;;;20.70;92.10;;;;;;5071948;28;19924;-60
2022/07/26 09:24:54;;;;;;;;;;;20.60;91.90;;;;;;5071028;28;19913;-60
2022/07/26 09:27:20;;;;;;;;;;;20.60;91.70;;;;;;5071443;28;20361;-60
2022/07/26 09:29:46;;;;;;;;;;;20.60;91.40;;;;;;5071431;28;19912;-59
2022/07/26 09:32:15;;;;;;;;;;;20.50;91.40;;;;;;5070871;28;19947;-59
2022/07/26 09:34:42;;;;;;;;;;;20.50;91.50;;;;;;5071517;28;19909;-60
2022/07/26 09:37:08;;;;;;;;;;;20.50;91.50;;;;;;5071550;28;20006;-60
2022/07/26 09:39:51;;;;;;;;;;;20.50;91.60;;;;;;5064376;28;20369;-59
2022/07/26 09:42:17;;;;;;;;;;;20.50;91.60;;;;;;5071458;28;19916;-58
2022/07/26 09:44:42;;;;;;;;;;;20.70;91.70;;;;;;5070409;28;19909;-60
2022/07/26 09:47:08;;;;;;;;;;;20.70;91.20;;;;;;5071064;28;19920;-59
2022/07/26 09:49:33;;;;;;;;;;;20.80;91.50;;;;;;5070918;28;19923;-60
2022/07/26 09:51:59;;;;;;;;;;;20.90;90.70;;;;;;5071283;28;19916;-59
2022/07/26 09:54:27;;;;;;;;;;;20.90;90.30;;;;;;5071452;28;20033;-60
2022/07/26 09:56:53;;;;;;;;;;;20.80;90.00;;;;;;5070660;28;19912;-59
2022/07/26 09:59:20;;;;;;;;;;;20.90;90.20;;;;;;5070585;28;20253;-60
2022/07/26 10:01:46;;;;;;;;;;;20.90;90.10;;;;;;5071273;28;19927;-58
2022/07/26 10:04:12;;;;;;;;;;;20.90;90.00;;;;;;5071211;28;19913;-58
2022/07/26 10:06:38;;;;;;;;;;;20.90;89.80;;;;;;5070851;28;20407;-60
2022/07/26 10:09:04;;;;;;;;;;;21.00;89.80;;;;;;5070893;28;19931;-59
2022/07/26 10:11:56;;;;;;;;;;;21.00;88.80;;;;;;5070815;28;19913;-59
2022/07/26 10:14:38;;;;;;;;;;;21.10;89.00;;;;;;5068284;28;19943;-59
2022/07/26 10:17:43;;;;;;;;;;;21.00;87.20;;;;;;5071154;28;19915;-59
2022/07/26 10:20:10;;;;;;;;;;;21.00;87.00;;;;;;5028585;28;19920;-60
2022/07/26 10:22:45;;;;;;;;;;;20.90;87.30;;;;;;5018246;28;19924;-59
2022/07/26 10:25:17;;;;;;;;;;;20.90;87.10;;;;;;5026436;28;19921;-59
2022/07/26 10:27:52;;;;;;;;;;;21.00;85.40;;;;;;5027935;28;19909;-60
2022/07/26 10:30:18;;;;;;;;;;;21.00;85.90;;;;;;5027842;28;19913;-60
2022/07/26 10:32:43;;;;;;;;;;;21.10;85.30;;;;;;5028323;28;20380;-59
2022/07/26 10:35:28;;;;;;;;;;;21.10;84.80;;;;;;5010041;28;20414;-59
2022/07/26 10:37:57;;;;;;;;;;;21.10;85.70;;;;;;5012960;28;20421;-59
2022/07/26 10:40:28;;;;;;;;;;;21.30;84.40;;;;;;5013096;28;20092;-59
2022/07/26 10:43:06;;;;;;;;;;;21.30;84.00;;;;;;5012440;28;19924;-60
2022/07/26 10:45:32;;;;;;;;;;;21.30;83.20;;;;;;5012898;28;20326;-60
2022/07/26 10:48:14;;;;;;;;;;;21.40;83.90;;;;;;5015342;28;19920;-59
2022/07/26 10:50:40;;;;;;;;;;;21.50;83.70;;;;;;5042735;28;20300;-59
2022/07/26 10:53:06;;;;;;;;;;;21.70;84.10;;;;;;5074763;28;19932;-59
2022/07/26 10:55:43;;;;;;;;;;;21.90;84.00;;;;;;5056232;28;19913;-59
2022/07/26 10:58:08;;;;;;;;;;;21.90;80.10;;;;;;5074439;28;20383;-60
2022/07/26 11:00:34;;;;;;;;;;;21.80;80.10;;;;;;5074539;28;19916;-61
2022/07/26 11:02:59;;;;;;;;;;;21.90;81.00;;;;;;5074574;28;19909;-59
2022/07/26 11:05:29;;;;;;;;;;;22.00;81.00;;;;;;5067849;28;19909;-59
2022/07/26 11:08:09;;;;;;;;;;;22.10;80.60;;;;;;5074703;28;19912;-59
2022/07/26 11:10:39;;;;;;;;;;;22.10;79.70;;;;;;5065828;28;19913;-59
2022/07/26 11:13:06;;;;;;;;;;;22.10;77.50;;;;;;5067268;28;20459;-59
2022/07/26 11:15:32;;;;;;;;;;;22.10;78.80;;;;;;5072061;28;19916;-58
2022/07/26 11:18:05;;;;;;;;;;;22.30;80.90;;;;;;5071848;28;19991;-58
2022/07/26 11:20:30;;;;;;;;;;;22.40;80.80;;;;;;5071651;28;19927;-58
2022/07/26 11:22:56;;;;;;;;;;;22.60;81.10;;;;;;5071681;28;19908;-58
2022/07/26 11:25:21;;;;;;;;;;;22.70;78.80;;;;;;5070937;28;20051;-58
2022/07/26 11:28:00;;;;;;;;;;;22.80;78.50;;;;;;5071766;28;20305;-58
2022/07/26 11:30:26;;;;;;;;;;;22.70;77.20;;;;;;5073676;28;19999;-59
2022/07/26 11:32:52;;;;;;;;;;;22.60;75.90;;;;;;5071417;28;20407;-59
2022/07/26 11:35:18;;;;;;;;;;;22.60;75.90;;;;;;5071468;28;19985;-58
2022/07/26 11:37:56;;;;;;;;;;;22.60;76.10;;;;;;5053678;28;20444;-58
2022/07/26 11:40:41;;;;;;;;;;;22.70;77.90;;;;;;5049156;28;20414;-59
2022/07/26 11:43:06;;;;;;;;;;;22.80;75.80;;;;;;5068663;28;19928;-59
2022/07/26 11:45:32;;;;;;;;;;;22.80;76.20;;;;;;5068904;28;19916;-59
2022/07/26 11:47:58;;;;;;;;;;;22.80;77.10;;;;;;5070404;28;19917;-59
2022/07/26 11:50:23;;;;;;;;;;;22.90;76.20;;;;;;5071020;28;19928;-59
2022/07/26 11:52:50;;;;;;;;;;;22.80;74.10;;;;;;5056806;28;20415;-57
2022/07/26 11:55:24;;;;;;;;;;;22.60;75.00;;;;;;5070328;28;20132;-58
2022/07/26 11:57:49;;;;;;;;;;;22.50;73.80;;;;;;5069857;28;20277;-57
2022/07/26 12:00:15;;;;;;;;;;;22.40;74.20;;;;;;5070866;28;19924;-58
2022/07/26 12:02:41;;;;;;;;;;;22.40;73.80;;;;;;5069660;28;19920;-57
2022/07/26 12:05:14;;;;;;;;;;;22.20;74.00;;;;;;5052975;28;19923;-57
2022/07/26 12:07:51;;;;;;;;;;;22.20;75.10;;;;;;5070473;28;20361;-58
2022/07/26 12:10:17;;;;;;;;;;;22.20;74.30;;;;;;5069854;28;19917;-58
2022/07/26 12:12:42;;;;;;;;;;;22.30;74.50;;;;;;5068868;28;19919;-58
2022/07/26 12:15:08;;;;;;;;;;;22.30;74.60;;;;;;5069562;28;20019;-58
2022/07/26 12:17:33;;;;;;;;;;;22.30;75.20;;;;;;5070893;28;20008;-58
2022/07/26 12:20:13;;;;;;;;;;;22.30;75.50;;;;;;5069890;28;19927;-59
2022/07/26 12:22:38;;;;;;;;;;;22.20;75.40;;;;;;5069475;28;20266;-59
2022/07/26 12:25:04;;;;;;;;;;;22.20;76.00;;;;;;5071895;28;19912;-57
2022/07/26 12:27:31;;;;;;;;;;;22.20;76.20;;;;;;5072303;28;20254;-61
2022/07/26 12:29:59;;;;;;;;;;;22.30;75.90;;;;;;5072559;28;19916;-59
2022/07/26 12:32:35;;;;;;;;;;;22.30;74.90;;;;;;5041550;28;19908;-61
2022/07/26 12:35:08;;;;;;;;;;;22.30;75.30;;;;;;5066266;28;19916;-60
2022/07/26 12:37:46;;;;;;;;;;;22.40;75.50;;;;;;5072431;28;19913;-59
2022/07/26 12:40:14;;;;;;;;;;;22.40;75.40;;;;;;5067790;28;19917;-60
2022/07/26 12:42:41;;;;;;;;;;;22.40;75.80;;;;;;5065915;28;19916;-61
2022/07/26 12:45:08;;;;;;;;;;;22.50;74.30;;;;;;5072274;28;19991;-61
2022/07/26 12:47:34;;;;;;;;;;;22.50;74.80;;;;;;5072833;28;19912;-58
2022/07/26 12:50:02;;;;;;;;;;;22.60;74.90;;;;;;5072194;28;20359;-60
2022/07/26 12:52:27;;;;;;;;;;;22.70;75.20;;;;;;5072118;28;19908;-60
2022/07/26 12:54:53;;;;;;;;;;;22.80;75.50;;;;;;5071982;28;20335;-59
2022/07/26 12:57:19;;;;;;;;;;;23.00;75.80;;;;;;5067004;28;19917;-61
2022/07/26 12:59:45;;;;;;;;;;;23.10;74.00;;;;;;5069973;28;19962;-60
2022/07/26 13:02:11;;;;;;;;;;;23.10;73.90;;;;;;5072160;28;19917;-61
2022/07/26 13:04:36;;;;;;;;;;;23.10;73.90;;;;;;5072034;28;19912;-60
2022/07/26 13:07:02;;;;;;;;;;;23.10;72.60;;;;;;5071390;28;19912;-61
2022/07/26 13:09:28;;;;;;;;;;;23.10;73.50;;;;;;5071842;28;19961;-60
2022/07/26 13:11:54;;;;;;;;;;;23.20;73.50;;;;;;5071967;28;19916;-60
2022/07/26 13:14:20;;;;;;;;;;;23.30;73.80;;;;;;5071997;28;19916;-60
2022/07/26 13:16:45;;;;;;;;;;;23.40;73.90;;;;;;5071607;28;19909;-59
2022/07/26 13:19:11;;;;;;;;;;;23.60;74.50;;;;;;5072189;28;19951;-60
2022/07/26 13:21:36;;;;;;;;;;;23.70;73.10;;;;;;5071185;28;19924;-61
2022/07/26 13:24:02;;;;;;;;;;;23.80;72.70;;;;;;5071710;28;19919;-62
2022/07/26 13:26:27;;;;;;;;;;;23.70;71.50;;;;;;5071724;28;19908;-60
2022/07/26 13:28:53;;;;;;;;;;;23.80;72.00;;;;;;5071553;28;20021;-60
2022/07/26 13:31:18;;;;;;;;;;;23.90;72.90;;;;;;5071765;28;19916;-60
2022/07/26 13:33:44;;;;;;;;;;;23.90;71.30;;;;;;5071414;28;20419;-61
2022/07/26 13:36:09;;;;;;;;;;;24.00;72.00;;;;;;5071250;28;20472;-60
2022/07/26 13:38:35;;;;;;;;;;;24.00;71.40;;;;;;5065088;28;20396;-60
2022/07/26 13:41:01;;;;;;;;;;;24.20;72.30;;;;;;5071419;28;19921;-60
2022/07/26 13:43:27;;;;;;;;;;;24.30;72.10;;;;;;5071908;28;19954;-59
2022/07/26 13:45:53;;;;;;;;;;;24.30;68.60;;;;;;5071474;28;19948;-59
2022/07/26 13:48:18;;;;;;;;;;;24.20;69.70;;;;;;5071618;28;19942;-61
2022/07/26 13:50:44;;;;;;;;;;;24.30;71.30;;;;;;5070891;28;20338;-61
2022/07/26 13:53:10;;;;;;;;;;;24.40;70.20;;;;;;5071271;28;20003;-61
2022/07/26 13:55:35;;;;;;;;;;;24.30;69.40;;;;;;5071197;28;19917;-61
2022/07/26 13:58:01;;;;;;;;;;;24.30;67.10;;;;;;5070913;28;19909;-59
2022/07/26 14:00:27;;;;;;;;;;;24.20;66.90;;;;;;5071135;28;19923;-61
2022/07/26 14:02:53;;;;;;;;;;;24.20;67.10;;;;;;5070811;28;19954;-60
2022/07/26 14:05:19;;;;;;;;;;;24.30;67.80;;;;;;5070727;28;20368;-62
2022/07/26 14:07:44;;;;;;;;;;;24.30;66.00;;;;;;5071146;28;19913;-60
2022/07/26 14:10:10;;;;;;;;;;;24.30;66.10;;;;;;5070823;28;20037;-62
2022/07/26 14:12:36;;;;;;;;;;;24.20;65.40;;;;;;5071117;28;19908;-61
2022/07/26 14:15:03;;;;;;;;;;;24.30;65.60;;;;;;5071426;28;19912;-61
2022/07/26 14:17:28;;;;;;;;;;;24.20;65.80;;;;;;5068739;28;20428;-60